sensor_id;sensor_type;location;lat;lon;timestamp;temperature;humidity
26035;DHT22;13809;48.632;11.576;2023-02-28T00:02:08;3.90;31.20
26035;DHT22;13809;48.632;11.576;2023-02-28T00:07:11;3.90;31.20
26035;DHT22;13809;48.632;11.576;2023-02-28T00:12:16;3.90;31.40
26035;DHT22;13809;48.632;11.576;2023-02-28T00:17:19;3.80;31.20
26035;DHT22;13809;48.632;11.576;2023-02-28T00:22:22;3.80;31.30
26035;DHT22;13809;48.632;11.576;2023-02-28T00:27:27;3.70;31.30
26035;DHT22;13809;48.632;11.576;2023-02-28T00:32:30;3.70;31.30
26035;DHT22;13809;48.632;11.576;2023-02-28T00:37:33;3.70;31.50
26035;DHT22;13809;48.632;11.576;2023-02-28T00:42:38;3.60;31.30
26035;DHT22;13809;48.632;11.576;2023-02-28T00:47:42;3.60;31.40
26035;DHT22;13809;48.632;11.576;2023-02-28T00:52:48;3.60;32.20
26035;DHT22;13809;48.632;11.576;2023-02-28T00:57:52;3.50;31.30
26035;DHT22;13809;48.632;11.576;2023-02-28T01:02:55;3.60;31.40
26035;DHT22;13809;48.632;11.576;2023-02-28T01:07:58;3.50;31.30
26035;DHT22;13809;48.632;11.576;2023-02-28T01:13:03;3.50;31.30
26035;DHT22;13809;48.632;11.576;2023-02-28T01:18:06;3.50;31.40
26035;DHT22;13809;48.632;11.576;2023-02-28T01:23:09;3.40;31.30
26035;DHT22;13809;48.632;11.576;2023-02-28T01:28:14;3.30;31.40
26035;DHT22;13809;48.632;11.576;2023-02-28T01:33:17;3.30;31.40
26035;DHT22;13809;48.632;11.576;2023-02-28T01:38:20;3.30;31.40
26035;DHT22;13809;48.632;11.576;2023-02-28T01:43:27;3.40;31.90
26035;DHT22;13809;48.632;11.576;2023-02-28T01:48:32;3.20;31.30
26035;DHT22;13809;48.632;11.576;2023-02-28T01:53:41;3.20;31.50
26035;DHT22;13809;48.632;11.576;2023-02-28T01:58:47;3.20;31.50
26035;DHT22;13809;48.632;11.576;2023-02-28T02:03:51;3.10;31.50
26035;DHT22;13809;48.632;11.576;2023-02-28T02:08:57;3.10;31.50
26035;DHT22;13809;48.632;11.576;2023-02-28T02:14:21;3.10;31.60
26035;DHT22;13809;48.632;11.576;2023-02-28T02:19:46;3.00;31.40
26035;DHT22;13809;48.632;11.576;2023-02-28T02:25:13;3.00;31.50
26035;DHT22;13809;48.632;11.576;2023-02-28T02:30:44;3.00;31.50
26035;DHT22;13809;48.632;11.576;2023-02-28T02:35:54;2.90;31.50
26035;DHT22;13809;48.632;11.576;2023-02-28T02:41:05;3.00;31.70
26035;DHT22;13809;48.632;11.576;2023-02-28T02:46:16;2.90;31.60
26035;DHT22;13809;48.632;11.576;2023-02-28T02:51:23;2.80;31.60
26035;DHT22;13809;48.632;11.576;2023-02-28T02:56:28;2.80;31.60
26035;DHT22;13809;48.632;11.576;2023-02-28T03:01:34;2.80;31.70
26035;DHT22;13809;48.632;11.576;2023-02-28T03:06:40;2.80;31.70
26035;DHT22;13809;48.632;11.576;2023-02-28T03:11:43;2.70;31.70
26035;DHT22;13809;48.632;11.576;2023-02-28T03:16:58;2.70;31.80
26035;DHT22;13809;48.632;11.576;2023-02-28T03:22:14;2.70;31.80
26035;DHT22;13809;48.632;11.576;2023-02-28T03:27:23;2.60;31.80
26035;DHT22;13809;48.632;11.576;2023-02-28T03:32:29;2.60;31.80
26035;DHT22;13809;48.632;11.576;2023-02-28T03:37:39;2.60;31.80
26035;DHT22;13809;48.632;11.576;2023-02-28T03:42:47;2.60;31.90
26035;DHT22;13809;48.632;11.576;2023-02-28T03:47:53;2.60;31.90
26035;DHT22;13809;48.632;11.576;2023-02-28T03:53:00;2.50;32.00
26035;DHT22;13809;48.632;11.576;2023-02-28T03:58:12;2.40;32.00
26035;DHT22;13809;48.632;11.576;2023-02-28T04:03:17;2.40;32.00
26035;DHT22;13809;48.632;11.576;2023-02-28T04:08:22;2.40;32.00
26035;DHT22;13809;48.632;11.576;2023-02-28T04:13:25;2.40;32.10
26035;DHT22;13809;48.632;11.576;2023-02-28T04:18:28;2.40;32.30
26035;DHT22;13809;48.632;11.576;2023-02-28T04:23:33;2.40;32.20
26035;DHT22;13809;48.632;11.576;2023-02-28T04:28:37;2.30;32.30
26035;DHT22;13809;48.632;11.576;2023-02-28T04:33:40;2.30;32.20
26035;DHT22;13809;48.632;11.576;2023-02-28T04:38:46;2.30;32.30
26035;DHT22;13809;48.632;11.576;2023-02-28T04:43:50;2.30;32.40
26035;DHT22;13809;48.632;11.576;2023-02-28T04:48:53;2.30;32.40
26035;DHT22;13809;48.632;11.576;2023-02-28T04:54:01;2.30;32.40
26035;DHT22;13809;48.632;11.576;2023-02-28T04:59:04;2.30;32.50
26035;DHT22;13809;48.632;11.576;2023-02-28T05:04:09;2.20;32.30
26035;DHT22;13809;48.632;11.576;2023-02-28T05:09:13;2.30;32.60
26035;DHT22;13809;48.632;11.576;2023-02-28T05:14:16;2.20;32.50
26035;DHT22;13809;48.632;11.576;2023-02-28T05:19:19;2.30;32.50
26035;DHT22;13809;48.632;11.576;2023-02-28T05:24:24;2.20;32.50
26035;DHT22;13809;48.632;11.576;2023-02-28T05:29:27;2.20;32.60
26035;DHT22;13809;48.632;11.576;2023-02-28T05:34:30;2.10;32.50
26035;DHT22;13809;48.632;11.576;2023-02-28T05:39:35;2.30;32.70
26035;DHT22;13809;48.632;11.576;2023-02-28T05:44:38;2.10;32.70
26035;DHT22;13809;48.632;11.576;2023-02-28T05:49:42;2.10;32.70
26035;DHT22;13809;48.632;11.576;2023-02-28T05:54:47;2.10;32.70
26035;DHT22;13809;48.632;11.576;2023-02-28T05:59:50;2.10;32.80
26035;DHT22;13809;48.632;11.576;2023-02-28T06:04:53;2.00;32.60
26035;DHT22;13809;48.632;11.576;2023-02-28T06:09:58;2.00;32.70
26035;DHT22;13809;48.632;11.576;2023-02-28T06:15:01;2.00;32.80
26035;DHT22;13809;48.632;11.576;2023-02-28T06:20:05;2.00;32.80
26035;DHT22;13809;48.632;11.576;2023-02-28T06:25:11;2.00;32.80
26035;DHT22;13809;48.632;11.576;2023-02-28T06:30:14;2.00;34.40
26035;DHT22;13809;48.632;11.576;2023-02-28T06:35:17;2.00;34.30
26035;DHT22;13809;48.632;11.576;2023-02-28T06:40:22;2.10;33.80
26035;DHT22;13809;48.632;11.576;2023-02-28T06:45:28;2.20;33.60
26035;DHT22;13809;48.632;11.576;2023-02-28T06:50:31;2.20;33.30
26035;DHT22;13809;48.632;11.576;2023-02-28T06:55:37;2.20;33.40
26035;DHT22;13809;48.632;11.576;2023-02-28T07:00:40;2.10;33.40
26035;DHT22;13809;48.632;11.576;2023-02-28T07:05:44;2.10;33.40
26035;DHT22;13809;48.632;11.576;2023-02-28T07:10:51;2.10;33.70
26035;DHT22;13809;48.632;11.576;2023-02-28T07:15:55;2.10;33.70
26035;DHT22;13809;48.632;11.576;2023-02-28T07:21:01;2.20;33.60
26035;DHT22;13809;48.632;11.576;2023-02-28T07:26:06;2.10;33.70
26035;DHT22;13809;48.632;11.576;2023-02-28T07:31:09;2.20;33.90
26035;DHT22;13809;48.632;11.576;2023-02-28T07:36:15;2.20;33.90
26035;DHT22;13809;48.632;11.576;2023-02-28T07:41:21;2.30;34.00
26035;DHT22;13809;48.632;11.576;2023-02-28T07:46:26;2.40;34.10
26035;DHT22;13809;48.632;11.576;2023-02-28T07:51:32;2.40;34.00
26035;DHT22;13809;48.632;11.576;2023-02-28T07:56:36;2.50;34.00
26035;DHT22;13809;48.632;11.576;2023-02-28T08:01:40;2.50;34.10
26035;DHT22;13809;48.632;11.576;2023-02-28T08:06:43;2.70;34.30
26035;DHT22;13809;48.632;11.576;2023-02-28T08:11:48;2.80;34.20
26035;DHT22;13809;48.632;11.576;2023-02-28T08:16:51;3.00;34.30
26035;DHT22;13809;48.632;11.576;2023-02-28T08:21:54;3.10;34.20
26035;DHT22;13809;48.632;11.576;2023-02-28T08:26:58;3.30;34.10
26035;DHT22;13809;48.632;11.576;2023-02-28T08:32:01;3.40;33.80
26035;DHT22;13809;48.632;11.576;2023-02-28T08:37:05;3.60;34.00
26035;DHT22;13809;48.632;11.576;2023-02-28T08:42:09;3.80;33.80
26035;DHT22;13809;48.632;11.576;2023-02-28T08:47:12;4.10;33.50
26035;DHT22;13809;48.632;11.576;2023-02-28T08:52:15;4.20;33.60
26035;DHT22;13809;48.632;11.576;2023-02-28T08:57:20;4.40;33.40
26035;DHT22;13809;48.632;11.576;2023-02-28T09:02:23;4.60;33.10
26035;DHT22;13809;48.632;11.576;2023-02-28T09:07:26;4.80;33.00
26035;DHT22;13809;48.632;11.576;2023-02-28T09:12:33;5.00;32.80
26035;DHT22;13809;48.632;11.576;2023-02-28T09:17:36;5.10;31.60
26035;DHT22;13809;48.632;11.576;2023-02-28T09:22:39;5.20;32.40
26035;DHT22;13809;48.632;11.576;2023-02-28T09:27:44;5.30;31.80
26035;DHT22;13809;48.632;11.576;2023-02-28T09:32:48;5.40;31.20
26035;DHT22;13809;48.632;11.576;2023-02-28T09:37:54;5.50;31.70
26035;DHT22;13809;48.632;11.576;2023-02-28T09:42:59;5.60;31.80
26035;DHT22;13809;48.632;11.576;2023-02-28T09:48:09;5.70;31.40
26035;DHT22;13809;48.632;11.576;2023-02-28T09:53:19;5.80;30.90
26035;DHT22;13809;48.632;11.576;2023-02-28T09:58:30;6.00;31.20
26035;DHT22;13809;48.632;11.576;2023-02-28T10:03:38;6.10;31.10
26035;DHT22;13809;48.632;11.576;2023-02-28T10:08:47;6.30;31.10
26035;DHT22;13809;48.632;11.576;2023-02-28T10:13:57;6.40;30.80
26035;DHT22;13809;48.632;11.576;2023-02-28T10:19:05;6.50;30.60
26035;DHT22;13809;48.632;11.576;2023-02-28T10:24:19;6.60;30.20
26035;DHT22;13809;48.632;11.576;2023-02-28T10:29:24;6.70;30.30
26035;DHT22;13809;48.632;11.576;2023-02-28T10:34:28;6.80;30.60
26035;DHT22;13809;48.632;11.576;2023-02-28T10:39:36;6.90;30.90
26035;DHT22;13809;48.632;11.576;2023-02-28T10:44:41;7.10;30.60
26035;DHT22;13809;48.632;11.576;2023-02-28T10:49:48;7.20;30.30
26035;DHT22;13809;48.632;11.576;2023-02-28T10:55:16;7.30;29.70
26035;DHT22;13809;48.632;11.576;2023-02-28T11:00:25;7.40;29.80
26035;DHT22;13809;48.632;11.576;2023-02-28T11:05:35;7.50;29.80
26035;DHT22;13809;48.632;11.576;2023-02-28T11:10:39;7.60;30.00
26035;DHT22;13809;48.632;11.576;2023-02-28T11:15:50;7.70;30.00
26035;DHT22;13809;48.632;11.576;2023-02-28T11:20:56;7.70;29.50
26035;DHT22;13809;48.632;11.576;2023-02-28T11:26:02;7.80;29.80
26035;DHT22;13809;48.632;11.576;2023-02-28T11:31:17;7.90;29.90
26035;DHT22;13809;48.632;11.576;2023-02-28T11:36:23;8.00;29.40
26035;DHT22;13809;48.632;11.576;2023-02-28T11:41:42;8.10;29.70
26035;DHT22;13809;48.632;11.576;2023-02-28T11:47:00;8.10;28.80
26035;DHT22;13809;48.632;11.576;2023-02-28T11:52:15;8.10;29.30
26035;DHT22;13809;48.632;11.576;2023-02-28T11:57:33;8.20;29.40
26035;DHT22;13809;48.632;11.576;2023-02-28T12:02:53;8.20;29.10
26035;DHT22;13809;48.632;11.576;2023-02-28T12:08:07;8.30;28.30
26035;DHT22;13809;48.632;11.576;2023-02-28T12:13:21;8.20;29.10
26035;DHT22;13809;48.632;11.576;2023-02-28T12:18:53;8.20;28.90
26035;DHT22;13809;48.632;11.576;2023-02-28T12:29:30;8.20;29.00
26035;DHT22;13809;48.632;11.576;2023-02-28T12:34:37;8.20;29.30
26035;DHT22;13809;48.632;11.576;2023-02-28T12:39:44;8.20;28.80
26035;DHT22;13809;48.632;11.576;2023-02-28T12:44:55;8.20;29.10
26035;DHT22;13809;48.632;11.576;2023-02-28T12:50:04;8.20;29.00
26035;DHT22;13809;48.632;11.576;2023-02-28T12:55:14;8.20;28.90
26035;DHT22;13809;48.632;11.576;2023-02-28T13:00:20;8.20;28.70
26035;DHT22;13809;48.632;11.576;2023-02-28T13:11:24;8.20;28.00
26035;DHT22;13809;48.632;11.576;2023-02-28T13:16:27;8.20;28.40
26035;DHT22;13809;48.632;11.576;2023-02-28T13:21:42;8.20;29.40
26035;DHT22;13809;48.632;11.576;2023-02-28T13:32:35;8.20;28.20
26035;DHT22;13809;48.632;11.576;2023-02-28T13:37:43;8.20;28.70
26035;DHT22;13809;48.632;11.576;2023-02-28T13:42:49;8.30;29.40
26035;DHT22;13809;48.632;11.576;2023-02-28T13:47:59;8.30;29.00
26035;DHT22;13809;48.632;11.576;2023-02-28T13:58:54;8.40;28.10
26035;DHT22;13809;48.632;11.576;2023-02-28T14:04:13;8.50;29.00
26035;DHT22;13809;48.632;11.576;2023-02-28T14:09:23;8.50;28.50
26035;DHT22;13809;48.632;11.576;2023-02-28T14:14:54;8.50;29.10
26035;DHT22;13809;48.632;11.576;2023-02-28T14:20:00;8.60;28.20
26035;DHT22;13809;48.632;11.576;2023-02-28T14:25:18;8.60;29.10
26035;DHT22;13809;48.632;11.576;2023-02-28T14:30:54;8.70;28.20
26035;DHT22;13809;48.632;11.576;2023-02-28T14:36:16;8.70;28.20
26035;DHT22;13809;48.632;11.576;2023-02-28T14:41:23;8.80;28.30
26035;DHT22;13809;48.632;11.576;2023-02-28T14:46:30;8.80;28.80
26035;DHT22;13809;48.632;11.576;2023-02-28T14:51:38;8.80;28.80
26035;DHT22;13809;48.632;11.576;2023-02-28T14:56:42;8.80;28.50
26035;DHT22;13809;48.632;11.576;2023-02-28T15:01:45;8.80;28.80
26035;DHT22;13809;48.632;11.576;2023-02-28T15:07:08;8.70;29.00
26035;DHT22;13809;48.632;11.576;2023-02-28T15:12:14;8.70;28.20
26035;DHT22;13809;48.632;11.576;2023-02-28T15:17:22;8.80;28.70
26035;DHT22;13809;48.632;11.576;2023-02-28T15:22:35;8.80;28.70
26035;DHT22;13809;48.632;11.576;2023-02-28T15:27:43;8.80;28.30
26035;DHT22;13809;48.632;11.576;2023-02-28T15:33:03;8.80;28.80
26035;DHT22;13809;48.632;11.576;2023-02-28T15:38:16;8.80;28.30
26035;DHT22;13809;48.632;11.576;2023-02-28T15:43:25;8.90;28.40
26035;DHT22;13809;48.632;11.576;2023-02-28T15:48:31;8.90;28.40
26035;DHT22;13809;48.632;11.576;2023-02-28T15:53:39;8.90;29.00
26035;DHT22;13809;48.632;11.576;2023-02-28T15:58:43;8.90;28.70
26035;DHT22;13809;48.632;11.576;2023-02-28T16:03:48;8.90;29.10
26035;DHT22;13809;48.632;11.576;2023-02-28T16:08:53;9.00;28.90
26035;DHT22;13809;48.632;11.576;2023-02-28T16:13:57;9.00;29.10
26035;DHT22;13809;48.632;11.576;2023-02-28T16:19:00;9.00;28.90
26035;DHT22;13809;48.632;11.576;2023-02-28T16:24:05;9.00;28.80
26035;DHT22;13809;48.632;11.576;2023-02-28T16:29:09;8.90;28.50
26035;DHT22;13809;48.632;11.576;2023-02-28T16:34:16;8.90;28.60
26035;DHT22;13809;48.632;11.576;2023-02-28T16:39:20;8.80;28.70
26035;DHT22;13809;48.632;11.576;2023-02-28T16:44:27;8.70;28.50
26035;DHT22;13809;48.632;11.576;2023-02-28T16:49:31;8.60;28.30
26035;DHT22;13809;48.632;11.576;2023-02-28T16:54:35;8.50;29.20
26035;DHT22;13809;48.632;11.576;2023-02-28T16:59:39;8.50;28.80
26035;DHT22;13809;48.632;11.576;2023-02-28T17:04:42;8.40;28.90
26035;DHT22;13809;48.632;11.576;2023-02-28T17:09:46;8.30;28.80
26035;DHT22;13809;48.632;11.576;2023-02-28T17:14:49;8.30;28.80
26035;DHT22;13809;48.632;11.576;2023-02-28T17:19:52;8.20;28.90
26035;DHT22;13809;48.632;11.576;2023-02-28T17:24:57;8.20;29.00
26035;DHT22;13809;48.632;11.576;2023-02-28T17:30:00;8.10;28.90
26035;DHT22;13809;48.632;11.576;2023-02-28T17:35:05;8.10;29.00
26035;DHT22;13809;48.632;11.576;2023-02-28T17:40:14;8.10;29.00
26035;DHT22;13809;48.632;11.576;2023-02-28T17:45:18;8.00;28.80
26035;DHT22;13809;48.632;11.576;2023-02-28T17:50:22;8.00;29.00
26035;DHT22;13809;48.632;11.576;2023-02-28T17:55:26;7.90;29.00
26035;DHT22;13809;48.632;11.576;2023-02-28T18:00:30;7.80;28.90
26035;DHT22;13809;48.632;11.576;2023-02-28T18:05:35;7.80;29.00
26035;DHT22;13809;48.632;11.576;2023-02-28T18:10:40;7.70;29.00
26035;DHT22;13809;48.632;11.576;2023-02-28T18:15:43;7.60;29.00
26035;DHT22;13809;48.632;11.576;2023-02-28T18:20:46;7.50;29.00
26035;DHT22;13809;48.632;11.576;2023-02-28T18:25:52;7.40;29.10
26035;DHT22;13809;48.632;11.576;2023-02-28T18:30:56;7.30;29.00
26035;DHT22;13809;48.632;11.576;2023-02-28T18:35:59;7.30;29.10
26035;DHT22;13809;48.632;11.576;2023-02-28T18:41:05;7.20;29.30
26035;DHT22;13809;48.632;11.576;2023-02-28T18:46:11;7.20;29.30
26035;DHT22;13809;48.632;11.576;2023-02-28T18:51:16;7.20;29.40
26035;DHT22;13809;48.632;11.576;2023-02-28T18:56:23;7.20;29.50
26035;DHT22;13809;48.632;11.576;2023-02-28T19:01:28;7.20;29.50
26035;DHT22;13809;48.632;11.576;2023-02-28T19:06:33;7.10;29.50
26035;DHT22;13809;48.632;11.576;2023-02-28T19:11:40;7.10;29.50
26035;DHT22;13809;48.632;11.576;2023-02-28T19:16:43;7.00;29.50
26035;DHT22;13809;48.632;11.576;2023-02-28T19:21:48;7.00;29.50
26035;DHT22;13809;48.632;11.576;2023-02-28T19:26:52;6.90;29.50
26035;DHT22;13809;48.632;11.576;2023-02-28T19:31:55;6.90;29.60
26035;DHT22;13809;48.632;11.576;2023-02-28T19:36:58;6.90;29.70
26035;DHT22;13809;48.632;11.576;2023-02-28T19:42:03;6.80;29.60
26035;DHT22;13809;48.632;11.576;2023-02-28T19:47:07;6.90;29.70
26035;DHT22;13809;48.632;11.576;2023-02-28T19:52:10;6.80;29.70
26035;DHT22;13809;48.632;11.576;2023-02-28T19:57:17;6.80;29.80
26035;DHT22;13809;48.632;11.576;2023-02-28T20:02:21;6.80;29.90
26035;DHT22;13809;48.632;11.576;2023-02-28T20:07:24;6.70;30.40
26035;DHT22;13809;48.632;11.576;2023-02-28T20:12:29;6.70;29.90
26035;DHT22;13809;48.632;11.576;2023-02-28T20:17:32;6.70;30.00
26035;DHT22;13809;48.632;11.576;2023-02-28T20:22:35;6.60;30.00
26035;DHT22;13809;48.632;11.576;2023-02-28T20:27:40;6.60;30.00
26035;DHT22;13809;48.632;11.576;2023-02-28T20:32:43;6.60;30.00
26035;DHT22;13809;48.632;11.576;2023-02-28T20:37:46;6.60;30.00
26035;DHT22;13809;48.632;11.576;2023-02-28T20:42:51;6.50;30.70
26035;DHT22;13809;48.632;11.576;2023-02-28T20:47:54;6.50;30.10
26035;DHT22;13809;48.632;11.576;2023-02-28T20:52:57;6.50;30.20
26035;DHT22;13809;48.632;11.576;2023-02-28T20:58:02;6.40;30.20
26035;DHT22;13809;48.632;11.576;2023-02-28T21:03:05;6.40;30.30
26035;DHT22;13809;48.632;11.576;2023-02-28T21:08:08;6.40;30.20
26035;DHT22;13809;48.632;11.576;2023-02-28T21:13:13;6.30;30.30
26035;DHT22;13809;48.632;11.576;2023-02-28T21:18:16;6.30;30.40
26035;DHT22;13809;48.632;11.576;2023-02-28T21:23:19;6.20;30.30
26035;DHT22;13809;48.632;11.576;2023-02-28T21:28:23;6.20;30.40
26035;DHT22;13809;48.632;11.576;2023-02-28T21:33:26;6.20;30.50
26035;DHT22;13809;48.632;11.576;2023-02-28T21:38:31;6.10;30.50
26035;DHT22;13809;48.632;11.576;2023-02-28T21:43:36;6.10;30.50
26035;DHT22;13809;48.632;11.576;2023-02-28T21:48:40;6.10;30.70
26035;DHT22;13809;48.632;11.576;2023-02-28T21:53:43;6.10;30.60
26035;DHT22;13809;48.632;11.576;2023-02-28T21:58:48;6.10;30.80
26035;DHT22;13809;48.632;11.576;2023-02-28T22:03:52;6.10;31.00
26035;DHT22;13809;48.632;11.576;2023-02-28T22:08:56;6.10;31.00
26035;DHT22;13809;48.632;11.576;2023-02-28T22:14:01;6.10;31.10
26035;DHT22;13809;48.632;11.576;2023-02-28T22:19:05;6.10;31.10
26035;DHT22;13809;48.632;11.576;2023-02-28T22:24:09;6.10;31.10
26035;DHT22;13809;48.632;11.576;2023-02-28T22:29:14;6.10;31.00
26035;DHT22;13809;48.632;11.576;2023-02-28T22:34:17;6.10;31.00
26035;DHT22;13809;48.632;11.576;2023-02-28T22:39:20;6.10;31.00
26035;DHT22;13809;48.632;11.576;2023-02-28T22:44:24;6.10;31.00
26035;DHT22;13809;48.632;11.576;2023-02-28T22:49:28;6.10;30.90
26035;DHT22;13809;48.632;11.576;2023-02-28T22:54:31;6.20;30.90
26035;DHT22;13809;48.632;11.576;2023-02-28T22:59:35;6.20;30.90
26035;DHT22;13809;48.632;11.576;2023-02-28T23:04:38;6.20;31.00
26035;DHT22;13809;48.632;11.576;2023-02-28T23:09:41;6.10;30.90
26035;DHT22;13809;48.632;11.576;2023-02-28T23:14:46;6.10;30.90
26035;DHT22;13809;48.632;11.576;2023-02-28T23:19:49;6.20;31.10
26035;DHT22;13809;48.632;11.576;2023-02-28T23:24:53;6.20;31.10
26035;DHT22;13809;48.632;11.576;2023-02-28T23:29:57;6.20;31.10
26035;DHT22;13809;48.632;11.576;2023-02-28T23:35:00;6.20;31.10
26035;DHT22;13809;48.632;11.576;2023-02-28T23:40:06;6.20;31.10
26035;DHT22;13809;48.632;11.576;2023-02-28T23:45:11;6.20;31.00
26035;DHT22;13809;48.632;11.576;2023-02-28T23:50:14;6.20;30.90
26035;DHT22;13809;48.632;11.576;2023-02-28T23:55:17;6.10;30.90
